Time;durP1;ratioP1;P1;durP2;ratioP2;P2;SDS_P1;SDS_P2;PMS_P1;PMS_P2;Temp;Humidity;BMP_temperature;BMP_pressure;BME280_temperature;BME280_humidity;BME280_pressure;Samples;Min_cycle;Max_cycle;Signal;HPM_P1;HPM_P2
2021/10/03 00:01:59;;;;;;;41.63;26.13;;;;;;;;;;5050127;28;20020;-78
2021/10/03 00:04:31;;;;;;;37.90;25.90;;;;;;;;;;5050040;28;20142;-78
2021/10/03 00:06:58;;;;;;;39.88;26.00;;;;;;;;;;5050650;28;20397;-77
2021/10/03 00:09:23;;;;;;;42.60;26.65;;;;;;;;;;5050305;28;20048;-78
2021/10/03 00:11:50;;;;;;;40.63;25.40;;;;;;;;;;5050504;28;20024;-77
2021/10/03 00:14:18;;;;;;;39.22;25.17;;;;;;;;;;5050042;28;20033;-77
2021/10/03 00:16:45;;;;;;;38.28;24.13;;;;;;;;;;5050482;28;20023;-77
2021/10/03 00:19:10;;;;;;;41.40;25.63;;;;;;;;;;5050135;28;20036;-77
2021/10/03 00:21:36;;;;;;;40.47;25.92;;;;;;;;;;5050396;28;20465;-76
2021/10/03 00:24:01;;;;;;;41.90;25.13;;;;;;;;;;5049960;28;20025;-77
2021/10/03 00:26:27;;;;;;;41.42;25.13;;;;;;;;;;5050499;28;20024;-76
2021/10/03 00:28:52;;;;;;;35.42;23.98;;;;;;;;;;5050003;28;20017;-77
2021/10/03 00:31:18;;;;;;;42.00;24.13;;;;;;;;;;5050522;28;20037;-78
2021/10/03 00:33:43;;;;;;;35.78;24.15;;;;;;;;;;5052755;28;20508;-77
2021/10/03 00:36:09;;;;;;;40.55;25.65;;;;;;;;;;5054005;28;20028;-77
2021/10/03 00:38:35;;;;;;;39.42;24.27;;;;;;;;;;5053876;28;20025;-77
2021/10/03 00:41:01;;;;;;;35.40;23.90;;;;;;;;;;5053706;28;20040;-77
2021/10/03 00:43:27;;;;;;;35.80;24.40;;;;;;;;;;5053575;28;20021;-78
2021/10/03 00:45:52;;;;;;;39.05;25.27;;;;;;;;;;5053647;28;20061;-77
2021/10/03 00:48:18;;;;;;;39.38;26.38;;;;;;;;;;5053500;28;20060;-76
2021/10/03 00:50:45;;;;;;;45.63;25.75;;;;;;;;;;5053687;28;20493;-77
2021/10/03 00:53:12;;;;;;;37.55;24.75;;;;;;;;;;5053212;28;20021;-78
2021/10/03 00:55:39;;;;;;;38.97;25.30;;;;;;;;;;5053420;28;20447;-78
2021/10/03 00:58:06;;;;;;;35.20;24.25;;;;;;;;;;5053489;28;20147;-77
2021/10/03 01:00:32;;;;;;;38.97;25.30;;;;;;;;;;5053567;28;20052;-77
2021/10/03 01:02:59;;;;;;;38.30;26.63;;;;;;;;;;5052977;28;20037;-77
2021/10/03 01:05:26;;;;;;;32.92;23.88;;;;;;;;;;5052707;28;20132;-77
2021/10/03 01:07:52;;;;;;;38.03;24.73;;;;;;;;;;5053358;28;20025;-77
2021/10/03 01:10:23;;;;;;;38.00;25.33;;;;;;;;;;5053007;28;20025;-76
2021/10/03 01:12:53;;;;;;;38.20;25.77;;;;;;;;;;5053273;28;20025;-76
2021/10/03 01:15:19;;;;;;;39.60;25.00;;;;;;;;;;5052460;28;20060;-76
2021/10/03 01:17:44;;;;;;;43.28;25.15;;;;;;;;;;5053171;28;20060;-78
2021/10/03 01:20:10;;;;;;;42.00;26.23;;;;;;;;;;5052946;28;20021;-76
2021/10/03 01:22:37;;;;;;;40.55;26.45;;;;;;;;;;5053069;28;20032;-77
2021/10/03 01:25:08;;;;;;;41.38;26.90;;;;;;;;;;5052595;28;20033;-77
2021/10/03 01:27:35;;;;;;;43.20;27.17;;;;;;;;;;5052903;28;20035;-76
2021/10/03 01:30:00;;;;;;;40.17;25.98;;;;;;;;;;5052559;28;20060;-78
2021/10/03 01:32:26;;;;;;;43.67;27.55;;;;;;;;;;5052915;28;20021;-77
2021/10/03 01:34:52;;;;;;;42.13;27.10;;;;;;;;;;5052435;28;20029;-77
2021/10/03 01:37:17;;;;;;;38.47;25.70;;;;;;;;;;5052424;28;20457;-77
2021/10/03 01:39:42;;;;;;;44.10;26.02;;;;;;;;;;5052778;28;20107;-77
2021/10/03 01:42:08;;;;;;;40.47;25.70;;;;;;;;;;5052460;28;20079;-77
2021/10/03 01:44:34;;;;;;;39.58;25.98;;;;;;;;;;5051489;28;20032;-77
2021/10/03 01:47:00;;;;;;;41.38;26.15;;;;;;;;;;5052434;28;20083;-77
2021/10/03 01:49:27;;;;;;;39.08;26.58;;;;;;;;;;5052745;28;20028;-77
2021/10/03 01:51:53;;;;;;;40.47;27.17;;;;;;;;;;5052665;28;20031;-78
2021/10/03 01:54:19;;;;;;;44.55;26.63;;;;;;;;;;5033985;28;20112;-78
2021/10/03 01:56:44;;;;;;;38.50;25.17;;;;;;;;;;5052526;28;20055;-76
2021/10/03 01:59:09;;;;;;;42.38;25.92;;;;;;;;;;5052016;28;20029;-78
2021/10/03 02:01:45;;;;;;;42.85;25.60;;;;;;;;;;5052422;28;20492;-77
2021/10/03 02:04:19;;;;;;;40.33;26.15;;;;;;;;;;5051788;28;20033;-78
2021/10/03 02:06:56;;;;;;;40.97;24.70;;;;;;;;;;5052254;28;20430;-77
2021/10/03 02:09:24;;;;;;;38.70;25.65;;;;;;;;;;5052448;28;20431;-78
2021/10/03 02:11:58;;;;;;;39.35;25.90;;;;;;;;;;5051989;28;20069;-77
2021/10/03 02:14:27;;;;;;;37.38;23.98;;;;;;;;;;5051861;28;20029;-78
2021/10/03 02:16:55;;;;;;;39.45;24.10;;;;;;;;;;5052172;28;20035;-77
2021/10/03 02:19:24;;;;;;;38.20;25.02;;;;;;;;;;5051928;28;20048;-78
2021/10/03 02:21:50;;;;;;;39.95;24.73;;;;;;;;;;5052056;28;20036;-78
2021/10/03 02:24:16;;;;;;;41.47;25.25;;;;;;;;;;5033613;28;20029;-78
2021/10/03 02:26:42;;;;;;;36.60;23.60;;;;;;;;;;5052063;28;20108;-78
2021/10/03 02:29:08;;;;;;;39.28;25.40;;;;;;;;;;5051513;28;20029;-77
2021/10/03 02:31:34;;;;;;;38.45;24.05;;;;;;;;;;5051758;28;20024;-77
2021/10/03 02:34:00;;;;;;;43.53;26.38;;;;;;;;;;5049437;28;20088;-78
2021/10/03 02:36:25;;;;;;;39.28;24.35;;;;;;;;;;5046555;28;20036;-77
2021/10/03 02:38:53;;;;;;;40.72;24.77;;;;;;;;;;5069306;28;20035;-78
2021/10/03 02:41:19;;;;;;;38.65;23.70;;;;;;;;;;5066854;28;20037;-77
2021/10/03 02:43:50;;;;;;;37.22;22.92;;;;;;;;;;5063096;28;20025;-77
2021/10/03 02:46:18;;;;;;;37.47;24.73;;;;;;;;;;5055292;28;20107;-77
2021/10/03 02:48:49;;;;;;;38.25;24.50;;;;;;;;;;5051154;28;20086;-77
2021/10/03 02:51:16;;;;;;;35.25;22.90;;;;;;;;;;5058540;28;20108;-78
2021/10/03 02:53:42;;;;;;;40.80;25.15;;;;;;;;;;5051291;28;20488;-79
2021/10/03 02:56:08;;;;;;;40.42;23.02;;;;;;;;;;5033052;28;20029;-78
2021/10/03 02:58:33;;;;;;;38.97;24.30;;;;;;;;;;5052756;28;20032;-78
2021/10/03 03:00:59;;;;;;;36.55;23.05;;;;;;;;;;5059031;28;20539;-77
2021/10/03 03:03:24;;;;;;;34.50;23.13;;;;;;;;;;5058765;28;20081;-78
2021/10/03 03:05:50;;;;;;;35.63;22.25;;;;;;;;;;5051172;28;20037;-78
2021/10/03 03:08:17;;;;;;;39.33;22.50;;;;;;;;;;5050918;28;20495;-78
2021/10/03 03:10:42;;;;;;;35.63;22.73;;;;;;;;;;5051463;28;20052;-78
2021/10/03 03:13:08;;;;;;;31.60;21.00;;;;;;;;;;5055545;28;20075;-78
2021/10/03 03:15:33;;;;;;;35.35;23.50;;;;;;;;;;5059453;28;20078;-77
2021/10/03 03:17:59;;;;;;;39.70;22.92;;;;;;;;;;5068247;28;20071;-77
2021/10/03 03:20:24;;;;;;;35.58;22.45;;;;;;;;;;5051296;28;20037;-77
2021/10/03 03:22:50;;;;;;;34.80;22.80;;;;;;;;;;5051778;28;20112;-77
2021/10/03 03:25:16;;;;;;;43.17;23.05;;;;;;;;;;5032899;28;20047;-77
2021/10/03 03:27:42;;;;;;;37.10;23.00;;;;;;;;;;5051045;28;20071;-78
2021/10/03 03:30:12;;;;;;;36.40;21.92;;;;;;;;;;5050833;28;20025;-78
2021/10/03 03:32:37;;;;;;;32.30;22.27;;;;;;;;;;5050947;28;20413;-78
2021/10/03 03:35:03;;;;;;;35.78;22.50;;;;;;;;;;5046622;28;20020;-77
2021/10/03 03:37:29;;;;;;;36.10;22.45;;;;;;;;;;5050826;28;20029;-77
2021/10/03 03:39:54;;;;;;;37.00;23.23;;;;;;;;;;5060260;28;20055;-78
2021/10/03 03:42:21;;;;;;;35.35;22.20;;;;;;;;;;5055284;28;20492;-78
2021/10/03 03:44:46;;;;;;;32.22;21.52;;;;;;;;;;5050795;28;20037;-79
2021/10/03 03:47:12;;;;;;;36.55;22.15;;;;;;;;;;5051911;28;20473;-76
2021/10/03 03:49:38;;;;;;;35.60;21.45;;;;;;;;;;5069324;28;20325;-77
2021/10/03 03:52:04;;;;;;;37.90;23.45;;;;;;;;;;5055094;28;20029;-79
2021/10/03 03:54:30;;;;;;;35.03;22.13;;;;;;;;;;5050529;28;20489;-77
2021/10/03 03:56:55;;;;;;;36.03;22.20;;;;;;;;;;5050477;28;20385;-77
2021/10/03 03:59:25;;;;;;;37.67;23.10;;;;;;;;;;5063266;28;20020;-78
2021/10/03 04:01:51;;;;;;;40.97;23.23;;;;;;;;;;5055532;28;20039;-77
2021/10/03 04:04:16;;;;;;;36.53;22.88;;;;;;;;;;5050179;28;20041;-77
2021/10/03 04:06:42;;;;;;;34.08;22.45;;;;;;;;;;5050647;28;20043;-77
2021/10/03 04:09:07;;;;;;;34.03;22.17;;;;;;;;;;5059521;28;20060;-78
2021/10/03 04:11:33;;;;;;;33.60;21.63;;;;;;;;;;5065090;28;20476;-78
2021/10/03 04:13:58;;;;;;;38.67;22.85;;;;;;;;;;5055378;28;20415;-79
2021/10/03 04:16:23;;;;;;;33.90;21.60;;;;;;;;;;5067497;28;20036;-77
2021/10/03 04:18:49;;;;;;;32.42;21.30;;;;;;;;;;5069084;28;20029;-78
2021/10/03 04:21:14;;;;;;;37.42;22.05;;;;;;;;;;5063614;28;20463;-78
2021/10/03 04:23:41;;;;;;;35.25;21.83;;;;;;;;;;5059599;28;20057;-78
2021/10/03 04:26:07;;;;;;;35.13;22.02;;;;;;;;;;5058922;28;20056;-77
2021/10/03 04:28:32;;;;;;;30.60;21.17;;;;;;;;;;5063371;28;20079;-77
2021/10/03 04:30:58;;;;;;;33.47;20.38;;;;;;;;;;5065671;28;20116;-77
2021/10/03 04:33:23;;;;;;;34.92;22.30;;;;;;;;;;5055626;28;20029;-77
2021/10/03 04:35:49;;;;;;;35.63;21.35;;;;;;;;;;5065213;28;20119;-78
2021/10/03 04:38:14;;;;;;;36.95;21.23;;;;;;;;;;5054958;28;20028;-77
2021/10/03 04:40:40;;;;;;;38.72;23.42;;;;;;;;;;5054920;28;20028;-77
2021/10/03 04:43:06;;;;;;;35.83;22.70;;;;;;;;;;5067106;28;20496;-77
2021/10/03 04:45:31;;;;;;;33.53;21.38;;;;;;;;;;5060114;28;20028;-78
2021/10/03 04:48:01;;;;;;;31.65;21.05;;;;;;;;;;5059699;28;20025;-78
2021/10/03 04:50:27;;;;;;;34.85;21.20;;;;;;;;;;5060835;28;20032;-78
2021/10/03 04:52:52;;;;;;;38.13;23.38;;;;;;;;;;5055969;28;20025;-78
2021/10/03 04:55:17;;;;;;;35.08;22.00;;;;;;;;;;5054336;28;20028;-77
2021/10/03 04:57:44;;;;;;;37.97;21.90;;;;;;;;;;5062275;28;20020;-77
2021/10/03 05:00:10;;;;;;;33.55;20.50;;;;;;;;;;5058150;28;20433;-77
2021/10/03 05:02:36;;;;;;;32.90;21.77;;;;;;;;;;5060701;28;20362;-77
2021/10/03 05:05:03;;;;;;;34.80;21.95;;;;;;;;;;5071089;28;20090;-78
2021/10/03 05:07:28;;;;;;;31.60;21.42;;;;;;;;;;5061358;28;20039;-77
2021/10/03 05:09:53;;;;;;;33.47;20.40;;;;;;;;;;5063585;28;20028;-77
2021/10/03 05:12:19;;;;;;;32.88;21.75;;;;;;;;;;5063572;28;20024;-77
2021/10/03 05:14:45;;;;;;;35.95;21.45;;;;;;;;;;5065619;28;20392;-78
2021/10/03 05:17:11;;;;;;;34.65;22.17;;;;;;;;;;5054098;28;20029;-77
2021/10/03 05:19:36;;;;;;;33.08;21.45;;;;;;;;;;5060591;28;20521;-78
2021/10/03 05:22:02;;;;;;;31.83;21.25;;;;;;;;;;5054396;28;20452;-77
2021/10/03 05:24:28;;;;;;;32.95;20.33;;;;;;;;;;5059571;28;20021;-78
2021/10/03 05:26:53;;;;;;;36.58;21.05;;;;;;;;;;5066463;28;20112;-78
2021/10/03 05:29:19;;;;;;;35.25;22.15;;;;;;;;;;5056872;28;20284;-79
2021/10/03 05:31:44;;;;;;;33.30;20.63;;;;;;;;;;5052817;28;20527;-78
2021/10/03 05:34:10;;;;;;;29.35;20.00;;;;;;;;;;5053020;28;20027;-78
2021/10/03 05:36:35;;;;;;;28.92;19.77;;;;;;;;;;5054101;28;20357;-78
2021/10/03 05:39:01;;;;;;;34.65;21.58;;;;;;;;;;5040100;28;20025;-77
2021/10/03 05:41:27;;;;;;;34.00;20.88;;;;;;;;;;5066797;28;20029;-78
2021/10/03 05:43:53;;;;;;;36.08;20.15;;;;;;;;;;5035666;28;20029;-77
2021/10/03 05:46:19;;;;;;;30.63;20.17;;;;;;;;;;5044735;28;20139;-77
2021/10/03 05:48:44;;;;;;;31.08;20.08;;;;;;;;;;5057762;28;20039;-77
2021/10/03 05:51:11;;;;;;;33.85;21.17;;;;;;;;;;5064325;28;20031;-77
2021/10/03 05:53:36;;;;;;;32.63;19.98;;;;;;;;;;5062186;28;20017;-78
2021/10/03 05:56:03;;;;;;;31.77;20.50;;;;;;;;;;5061668;28;20354;-77
2021/10/03 05:58:28;;;;;;;33.30;21.10;;;;;;;;;;5055915;28;20108;-77
2021/10/03 06:00:54;;;;;;;30.73;19.98;;;;;;;;;;5052424;28;20120;-77
2021/10/03 06:03:20;;;;;;;31.65;20.05;;;;;;;;;;5054778;28;20025;-77
2021/10/03 06:05:45;;;;;;;30.67;20.23;;;;;;;;;;5063075;28;20040;-77
2021/10/03 06:08:10;;;;;;;31.38;19.70;;;;;;;;;;5059914;28;20090;-75
2021/10/03 06:10:37;;;;;;;33.35;20.88;;;;;;;;;;5050489;28;20366;-76
2021/10/03 06:13:04;;;;;;;28.17;20.25;;;;;;;;;;5034371;28;20052;-78
2021/10/03 06:15:32;;;;;;;30.30;19.27;;;;;;;;;;5060158;28;20035;-76
2021/10/03 06:17:57;;;;;;;30.38;20.20;;;;;;;;;;5054277;28;20029;-76
2021/10/03 06:20:23;;;;;;;27.50;19.15;;;;;;;;;;5059945;28;20029;-77
2021/10/03 06:22:48;;;;;;;29.33;19.23;;;;;;;;;;5062086;28;20056;-76
2021/10/03 06:25:15;;;;;;;29.02;19.10;;;;;;;;;;5058098;28;20036;-78
2021/10/03 06:27:40;;;;;;;30.70;18.92;;;;;;;;;;5054432;28;20508;-76
2021/10/03 06:30:06;;;;;;;29.92;19.50;;;;;;;;;;5069257;28;20054;-78
2021/10/03 06:32:32;;;;;;;33.28;19.55;;;;;;;;;;5062654;28;20029;-77
2021/10/03 06:34:58;;;;;;;31.23;19.55;;;;;;;;;;5065267;28;20103;-78
2021/10/03 06:37:23;;;;;;;32.28;19.40;;;;;;;;;;5057828;28;20025;-78
2021/10/03 06:39:49;;;;;;;33.65;19.48;;;;;;;;;;5062612;28;20135;-76
2021/10/03 06:42:14;;;;;;;31.13;19.48;;;;;;;;;;5052193;28;20107;-78
2021/10/03 06:44:40;;;;;;;28.33;19.77;;;;;;;;;;5067478;28;20044;-77
2021/10/03 06:47:08;;;;;;;29.75;19.17;;;;;;;;;;5057169;28;20402;-77
2021/10/03 06:49:35;;;;;;;31.02;18.15;;;;;;;;;;5066155;28;20181;-77
2021/10/03 06:52:02;;;;;;;30.45;19.38;;;;;;;;;;5064601;28;20052;-78
2021/10/03 06:54:28;;;;;;;26.45;18.58;;;;;;;;;;5061661;28;20036;-77
2021/10/03 06:56:54;;;;;;;28.75;19.15;;;;;;;;;;5056955;28;20030;-77
2021/10/03 06:59:20;;;;;;;25.55;17.95;;;;;;;;;;5056972;28;20052;-76
2021/10/03 07:01:46;;;;;;;30.77;19.13;;;;;;;;;;5068153;28;20115;-77
2021/10/03 07:04:12;;;;;;;27.40;18.63;;;;;;;;;;5055431;28;20037;-77
2021/10/03 07:06:38;;;;;;;27.65;17.63;;;;;;;;;;5062119;28;20029;-76
2021/10/03 07:09:04;;;;;;;27.85;19.27;;;;;;;;;;5063670;28;20056;-76
2021/10/03 07:11:29;;;;;;;28.65;19.85;;;;;;;;;;5058911;28;20090;-77
2021/10/03 07:13:55;;;;;;;26.88;18.63;;;;;;;;;;5065342;28;20036;-77
2021/10/03 07:16:20;;;;;;;27.00;18.63;;;;;;;;;;5053560;28;20033;-77
2021/10/03 07:18:46;;;;;;;26.75;18.50;;;;;;;;;;5053894;28;20049;-77
2021/10/03 07:21:12;;;;;;;31.58;19.48;;;;;;;;;;5066846;28;20036;-77
2021/10/03 07:23:38;;;;;;;29.60;18.88;;;;;;;;;;5054529;28;20041;-78
2021/10/03 07:26:03;;;;;;;26.83;17.33;;;;;;;;;;5058998;28;20537;-76
2021/10/03 07:28:29;;;;;;;29.13;18.08;;;;;;;;;;5055320;28;20036;-77
2021/10/03 07:30:55;;;;;;;29.77;18.17;;;;;;;;;;5057666;28;20035;-78
2021/10/03 07:33:20;;;;;;;27.75;19.35;;;;;;;;;;5054431;28;20033;-77
2021/10/03 07:35:46;;;;;;;28.77;18.17;;;;;;;;;;5058092;28;20052;-77
2021/10/03 07:38:12;;;;;;;28.38;17.95;;;;;;;;;;5048110;28;20040;-77
2021/10/03 07:40:37;;;;;;;28.25;18.88;;;;;;;;;;5052825;28;20025;-78
2021/10/03 07:43:03;;;;;;;25.90;18.38;;;;;;;;;;5055012;28;20025;-79
2021/10/03 07:45:29;;;;;;;26.60;18.45;;;;;;;;;;5052150;28;20032;-76
2021/10/03 07:47:55;;;;;;;28.08;18.23;;;;;;;;;;5051596;28;20488;-78
2021/10/03 07:50:20;;;;;;;25.52;17.88;;;;;;;;;;5058045;28;20033;-78
2021/10/03 07:52:46;;;;;;;25.05;18.40;;;;;;;;;;5051821;28;20047;-76
2021/10/03 07:55:12;;;;;;;28.92;19.10;;;;;;;;;;5065297;28;20095;-77
2021/10/03 07:57:37;;;;;;;25.58;17.67;;;;;;;;;;5052250;28;20040;-78
2021/10/03 08:00:04;;;;;;;23.25;16.85;;;;;;;;;;5052241;28;20024;-77
2021/10/03 08:02:30;;;;;;;23.10;17.42;;;;;;;;;;5056895;28;20033;-77
2021/10/03 08:04:55;;;;;;;28.67;17.88;;;;;;;;;;5058294;28;20115;-77
2021/10/03 08:07:21;;;;;;;24.98;16.15;;;;;;;;;;5062624;28;20051;-77
2021/10/03 08:09:47;;;;;;;25.23;17.77;;;;;;;;;;5052776;28;20029;-77
2021/10/03 08:12:12;;;;;;;22.95;16.65;;;;;;;;;;5068465;28;20020;-78
2021/10/03 08:14:38;;;;;;;24.90;16.92;;;;;;;;;;5069867;28;20028;-76
2021/10/03 08:17:03;;;;;;;24.80;16.13;;;;;;;;;;5064895;28;20698;-77
2021/10/03 08:19:29;;;;;;;23.05;16.23;;;;;;;;;;5051189;28;20032;-77
2021/10/03 08:21:55;;;;;;;23.25;16.10;;;;;;;;;;5059523;28;20032;-76
2021/10/03 08:24:20;;;;;;;25.73;16.15;;;;;;;;;;5069095;28;20367;-77
2021/10/03 08:26:46;;;;;;;24.40;16.80;;;;;;;;;;5067142;28;20024;-77
2021/10/03 08:29:11;;;;;;;27.30;16.02;;;;;;;;;;5052397;28;20040;-77
2021/10/03 08:31:37;;;;;;;21.52;16.02;;;;;;;;;;5054199;28;20456;-78
2021/10/03 08:34:02;;;;;;;23.17;16.63;;;;;;;;;;5058644;28;20025;-76
2021/10/03 08:36:28;;;;;;;19.58;15.07;;;;;;;;;;5069824;28;20031;-75
2021/10/03 08:38:55;;;;;;;23.13;16.40;;;;;;;;;;5052440;28;20035;-77
2021/10/03 08:41:21;;;;;;;26.77;14.52;;;;;;;;;;5060040;28;20032;-77
2021/10/03 08:43:52;;;;;;;25.55;15.48;;;;;;;;;;5068949;28;20021;-78
2021/10/03 08:46:23;;;;;;;22.13;14.82;;;;;;;;;;5052056;28;20024;-77
2021/10/03 08:48:49;;;;;;;19.77;14.32;;;;;;;;;;5057271;28;20012;-78
2021/10/03 08:51:14;;;;;;;23.13;15.32;;;;;;;;;;5059939;28;20772;-78
2021/10/03 08:53:40;;;;;;;20.45;14.38;;;;;;;;;;5046046;28;20028;-78
2021/10/03 08:56:05;;;;;;;19.30;13.00;;;;;;;;;;5066479;28;20071;-78
2021/10/03 08:58:31;;;;;;;17.80;14.02;;;;;;;;;;5063686;28;20488;-77
2021/10/03 09:00:57;;;;;;;20.83;13.85;;;;;;;;;;5051187;28;20076;-76
2021/10/03 09:03:23;;;;;;;20.02;13.63;;;;;;;;;;5036083;28;20045;-77
2021/10/03 09:05:53;;;;;;;23.40;14.52;;;;;;;;;;5067034;28;20036;-78
2021/10/03 09:08:21;;;;;;;21.58;14.60;;;;;;;;;;5056490;28;20044;-77
2021/10/03 09:10:53;;;;;;;18.15;13.20;;;;;;;;;;5064374;28;20029;-78
2021/10/03 09:13:22;;;;;;;20.25;12.45;;;;;;;;;;5068680;28;20032;-78
2021/10/03 09:16:06;;;;;;;20.95;12.95;;;;;;;;;;5070320;28;20433;-78
2021/10/03 09:18:39;;;;;;;;;;;;;;;;;;5048089;28;20033;-76
2021/10/03 09:21:06;;;;;;;20.20;12.80;;;;;;;;;;5059769;28;19912;-77
2021/10/03 09:23:32;;;;;;;19.15;12.60;;;;;;;;;;5070774;28;20098;-77
2021/10/03 09:25:58;;;;;;;19.38;12.85;;;;;;;;;;5063677;28;20021;-78
2021/10/03 09:28:23;;;;;;;18.30;13.02;;;;;;;;;;5053783;28;20036;-77
2021/10/03 09:31:01;;;;;;;17.85;12.00;;;;;;;;;;5053557;28;20032;-78
2021/10/03 09:33:44;;;;;;;18.98;12.00;;;;;;;;;;5059494;28;20456;-77
2021/10/03 09:36:11;;;;;;;20.35;12.15;;;;;;;;;;5057176;28;20021;-78
2021/10/03 09:38:58;;;;;;;18.63;12.50;;;;;;;;;;5063627;28;20086;-77
2021/10/03 09:41:28;;;;;;;17.92;12.75;;;;;;;;;;5070655;28;20466;-78
2021/10/03 09:44:19;;;;;;;20.77;11.65;;;;;;;;;;5062647;28;20025;-78
2021/10/03 09:46:50;;;;;;;17.67;12.70;;;;;;;;;;5062696;28;20507;-77
2021/10/03 09:49:24;;;;;;;17.55;12.52;;;;;;;;;;5048379;28;20534;-77
2021/10/03 09:51:50;;;;;;;15.82;11.90;;;;;;;;;;5054488;28;20107;-77
2021/10/03 09:54:17;;;;;;;21.45;12.60;;;;;;;;;;5053420;28;20512;-77
2021/10/03 09:56:44;;;;;;;20.85;13.00;;;;;;;;;;5060668;28;20032;-77
2021/10/03 09:59:10;;;;;;;17.42;13.23;;;;;;;;;;5065280;28;20540;-77
2021/10/03 10:01:46;;;;;;;15.57;11.52;;;;;;;;;;5066906;28;20116;-77
2021/10/03 10:04:16;;;;;;;18.42;12.73;;;;;;;;;;5054036;28;20490;-76
2021/10/03 10:06:43;;;;;;;19.55;13.40;;;;;;;;;;5053384;28;20025;-77
2021/10/03 10:09:15;;;;;;;19.23;12.85;;;;;;;;;;5056509;28;20024;-76
2021/10/03 10:11:49;;;;;;;16.60;12.23;;;;;;;;;;5063618;28;20028;-77
2021/10/03 10:14:15;;;;;;;18.00;11.95;;;;;;;;;;5063433;28;20021;-78
2021/10/03 10:16:44;;;;;;;18.25;12.43;;;;;;;;;;5052672;28;20041;-77
2021/10/03 10:19:33;;;;;;;21.38;12.98;;;;;;;;;;5061228;28;20032;-78
2021/10/03 10:22:18;;;;;;;16.38;11.65;;;;;;;;;;5051248;28;20043;-76
2021/10/03 10:24:43;;;;;;;20.52;13.35;;;;;;;;;;5062943;28;20041;-75
2021/10/03 10:27:21;;;;;;;21.50;12.45;;;;;;;;;;5052953;28;20028;-76
2021/10/03 10:30:00;;;;;;;18.05;12.70;;;;;;;;;;5059606;28;20066;-75
2021/10/03 10:32:28;;;;;;;18.75;11.93;;;;;;;;;;5058057;28;20492;-77
2021/10/03 10:35:09;;;;;;;19.95;11.85;;;;;;;;;;5063846;28;20113;-76
2021/10/03 10:37:56;;;;;;;16.30;12.20;;;;;;;;;;5059684;28;20178;-76
2021/10/03 10:40:24;;;;;;;17.70;11.55;;;;;;;;;;5058275;28;20090;-77
2021/10/03 10:42:51;;;;;;;17.15;11.93;;;;;;;;;;5051986;28;20560;-78
2021/10/03 10:45:44;;;;;;;14.93;11.32;;;;;;;;;;5052475;28;20078;-77
2021/10/03 10:48:09;;;;;;;17.95;11.23;;;;;;;;;;5058781;28;20037;-75
2021/10/03 10:50:34;;;;;;;20.45;12.40;;;;;;;;;;5059054;28;20032;-77
2021/10/03 10:53:30;;;;;;;18.55;11.88;;;;;;;;;;5052054;28;20020;-77
2021/10/03 10:56:10;;;;;;;15.93;11.77;;;;;;;;;;5040761;28;20385;-77
2021/10/03 10:58:59;;;;;;;16.40;11.23;;;;;;;;;;5056643;28;20103;-77
2021/10/03 11:01:30;;;;;;;20.33;11.35;;;;;;;;;;5052059;28;20416;-78
2021/10/03 11:03:57;;;;;;;18.08;12.30;;;;;;;;;;5065365;28;20059;-76
2021/10/03 11:06:22;;;;;;;18.83;12.40;;;;;;;;;;5050985;28;20455;-77
2021/10/03 11:08:57;;;;;;;16.23;11.32;;;;;;;;;;5060183;28;20062;-75
2021/10/03 11:11:54;;;;;;;16.48;11.63;;;;;;;;;;5050778;28;20048;-76
2021/10/03 11:14:22;;;;;;;21.65;12.27;;;;;;;;;;5052011;28;20028;-76
2021/10/03 11:16:50;;;;;;;20.60;12.32;;;;;;;;;;5051455;28;20025;-76
2021/10/03 11:19:22;;;;;;;16.25;11.68;;;;;;;;;;5050277;28;20060;-76
2021/10/03 11:21:53;;;;;;;15.45;12.00;;;;;;;;;;5068269;28;20056;-76
2021/10/03 11:24:27;;;;;;;14.82;12.05;;;;;;;;;;5053921;28;20469;-75
2021/10/03 11:27:00;;;;;;;18.48;12.00;;;;;;;;;;5051913;28;20036;-78
2021/10/03 11:29:29;;;;;;;20.23;11.63;;;;;;;;;;5059610;28;20032;-76
2021/10/03 11:31:57;;;;;;;18.92;11.50;;;;;;;;;;5054364;28;20024;-78
2021/10/03 11:34:42;;;;;;;19.13;11.80;;;;;;;;;;5053756;28;20023;-76
2021/10/03 11:37:12;;;;;;;21.20;11.52;;;;;;;;;;5061737;28;20017;-77
2021/10/03 11:39:40;;;;;;;19.17;12.00;;;;;;;;;;5050670;28;20017;-75
2021/10/03 11:42:06;;;;;;;17.42;11.55;;;;;;;;;;5050715;28;20025;-77
2021/10/03 11:44:33;;;;;;;17.05;10.98;;;;;;;;;;5050200;28;20163;-75
2021/10/03 11:47:05;;;;;;;17.00;11.43;;;;;;;;;;5064059;28;20029;-76
2021/10/03 11:49:35;;;;;;;17.70;11.90;;;;;;;;;;5032873;28;20107;-76
2021/10/03 11:52:02;;;;;;;15.40;10.48;;;;;;;;;;5050439;28;20059;-76
2021/10/03 11:54:46;;;;;;;16.50;11.15;;;;;;;;;;5032626;28;20431;-75
2021/10/03 11:57:29;;;;;;;16.20;10.15;;;;;;;;;;5049955;28;20388;-75
2021/10/03 12:00:27;;;;;;;19.25;11.23;;;;;;;;;;5050504;28;20059;-74
2021/10/03 12:02:55;;;;;;;15.38;10.68;;;;;;;;;;5047536;28;20420;-76
2021/10/03 12:05:28;;;;;;;13.68;10.38;;;;;;;;;;5063162;28;20048;-75
2021/10/03 12:08:10;;;;;;;17.33;11.18;;;;;;;;;;5057292;28;20447;-77
2021/10/03 12:10:44;;;;;;;16.35;11.00;;;;;;;;;;5050190;28;20040;-76
2021/10/03 12:13:12;;;;;;;17.88;10.85;;;;;;;;;;5050131;28;20021;-75
2021/10/03 12:15:50;;;;;;;15.88;10.05;;;;;;;;;;5062795;28;20025;-75
2021/10/03 12:18:24;;;;;;;19.40;10.68;;;;;;;;;;5064014;28;20028;-76
2021/10/03 12:20:53;;;;;;;15.15;10.38;;;;;;;;;;5057749;28;20028;-74
2021/10/03 12:23:20;;;;;;;19.92;10.60;;;;;;;;;;5066211;28;20409;-76
2021/10/03 12:25:50;;;;;;;17.08;10.40;;;;;;;;;;5031554;28;20021;-77
2021/10/03 12:28:16;;;;;;;14.57;10.50;;;;;;;;;;5047757;28;20049;-75
2021/10/03 12:30:52;;;;;;;16.23;11.00;;;;;;;;;;5067170;28;20114;-77
2021/10/03 12:33:18;;;;;;;17.73;9.80;;;;;;;;;;5037858;28;20024;-75
2021/10/03 12:36:04;;;;;;;15.80;10.32;;;;;;;;;;5053604;28;20021;-76
2021/10/03 12:38:30;;;;;;;16.70;10.13;;;;;;;;;;5044965;28;20033;-76
2021/10/03 12:40:57;;;;;;;16.65;10.23;;;;;;;;;;5072843;28;20032;-76
2021/10/03 12:43:23;;;;;;;14.25;10.13;;;;;;;;;;5050730;28;20025;-77
2021/10/03 12:45:49;;;;;;;16.50;10.38;;;;;;;;;;5045121;28;20124;-76
2021/10/03 12:48:16;;;;;;;13.95;9.60;;;;;;;;;;5056498;28;20103;-75
2021/10/03 12:50:45;;;;;;;18.10;10.20;;;;;;;;;;5062641;28;20127;-75
2021/10/03 12:53:11;;;;;;;14.40;9.50;;;;;;;;;;5035410;28;20028;-75
2021/10/03 12:55:36;;;;;;;18.67;10.30;;;;;;;;;;5053150;28;20033;-75
2021/10/03 12:58:02;;;;;;;17.15;10.07;;;;;;;;;;5053537;28;20028;-75
2021/10/03 13:00:27;;;;;;;13.93;9.30;;;;;;;;;;5053323;28;20104;-76
2021/10/03 13:02:55;;;;;;;14.45;9.65;;;;;;;;;;5053239;28;20025;-76
2021/10/03 13:05:20;;;;;;;14.20;10.73;;;;;;;;;;5046134;28;20053;-75
2021/10/03 13:07:46;;;;;;;18.20;10.43;;;;;;;;;;5052838;28;20039;-74
2021/10/03 13:10:11;;;;;;;13.57;9.07;;;;;;;;;;5052897;28;20024;-75
2021/10/03 13:12:37;;;;;;;17.02;9.68;;;;;;;;;;5052903;28;20013;-75
2021/10/03 13:15:08;;;;;;;18.00;10.13;;;;;;;;;;5053278;28;20079;-75
2021/10/03 13:17:34;;;;;;;15.43;9.90;;;;;;;;;;5052929;28;20028;-76
2021/10/03 13:20:00;;;;;;;16.15;10.00;;;;;;;;;;5068488;28;20052;-75
2021/10/03 13:22:26;;;;;;;16.38;10.27;;;;;;;;;;5053046;28;20033;-76
2021/10/03 13:24:51;;;;;;;18.83;10.43;;;;;;;;;;5052629;28;20428;-76
2021/10/03 13:27:17;;;;;;;13.30;9.65;;;;;;;;;;5053006;28;20062;-75
2021/10/03 13:29:42;;;;;;;14.25;10.30;;;;;;;;;;5052835;28;20016;-77
2021/10/03 13:32:08;;;;;;;15.70;9.55;;;;;;;;;;5039232;28;20021;-78
2021/10/03 13:34:33;;;;;;;15.02;9.65;;;;;;;;;;5031970;28;20037;-76
2021/10/03 13:36:59;;;;;;;15.20;9.73;;;;;;;;;;5039783;28;20478;-76
2021/10/03 13:39:24;;;;;;;16.45;10.15;;;;;;;;;;5069244;28;20024;-78
2021/10/03 13:41:50;;;;;;;18.00;10.07;;;;;;;;;;5058658;28;20412;-76
2021/10/03 13:44:15;;;;;;;15.07;9.73;;;;;;;;;;5056671;28;20358;-78
2021/10/03 13:46:40;;;;;;;15.43;10.55;;;;;;;;;;5061723;28;20096;-77
2021/10/03 13:49:06;;;;;;;13.27;9.13;;;;;;;;;;5056321;28;20025;-75
2021/10/03 13:51:31;;;;;;;13.70;10.00;;;;;;;;;;5048142;28;20098;-78
2021/10/03 13:53:57;;;;;;;20.65;9.65;;;;;;;;;;5047165;28;20536;-76
2021/10/03 13:56:22;;;;;;;15.63;9.48;;;;;;;;;;5041076;28;20108;-76
2021/10/03 13:58:47;;;;;;;16.50;9.60;;;;;;;;;;5051016;28;20025;-77
2021/10/03 14:01:13;;;;;;;15.60;10.18;;;;;;;;;;5062854;28;20025;-77
2021/10/03 14:03:38;;;;;;;16.23;9.82;;;;;;;;;;5064293;28;20108;-77
2021/10/03 14:06:04;;;;;;;15.05;9.27;;;;;;;;;;5057856;28;20036;-77
2021/10/03 14:08:29;;;;;;;15.48;9.27;;;;;;;;;;5051382;28;20098;-77
2021/10/03 14:10:54;;;;;;;13.52;9.05;;;;;;;;;;5053018;28;20064;-78
2021/10/03 14:13:20;;;;;;;13.70;9.13;;;;;;;;;;5038332;28;20052;-76
2021/10/03 14:15:47;;;;;;;16.67;9.60;;;;;;;;;;5054491;28;20045;-77
2021/10/03 14:18:13;;;;;;;15.50;9.48;;;;;;;;;;5054114;28;20499;-76
2021/10/03 14:20:39;;;;;;;13.95;9.05;;;;;;;;;;5052383;28;20032;-76
2021/10/03 14:23:09;;;;;;;15.63;9.65;;;;;;;;;;5053123;28;20021;-75